Time;durP1;ratioP1;P1;durP2;ratioP2;P2;SDS_P1;SDS_P2;PMS_P1;PMS_P2;Temp;Humidity;BMP_temperature;BMP_pressure;BME280_temperature;BME280_humidity;BME280_pressure;Samples;Min_cycle;Max_cycle;Signal;HPM_P1;HPM_P2
2021/08/06 00:02:04;;;;;;;39.50;6.93;;;;;;;;;;5017987;28;20074;-35
2021/08/06 00:04:31;;;;;;;24.13;5.05;;;;;;;;;;5019810;28;20437;-34
2021/08/06 00:06:58;;;;;;;35.70;5.50;;;;;;;;;;5025371;28;20026;-41
2021/08/06 00:09:26;;;;;;;28.80;5.65;;;;;;;;;;5022344;28;20079;-38
2021/08/06 00:11:58;;;;;;;27.02;5.40;;;;;;;;;;5018644;28;20385;-37
2021/08/06 00:14:25;;;;;;;33.67;6.05;;;;;;;;;;5022667;28;20033;-35
2021/08/06 00:16:53;;;;;;;24.55;5.88;;;;;;;;;;5025072;28;20076;-34
2021/08/06 00:19:20;;;;;;;29.15;6.45;;;;;;;;;;5022163;28;20026;-35
2021/08/06 00:21:48;;;;;;;25.45;6.03;;;;;;;;;;5021532;28;20018;-34
2021/08/06 00:24:15;;;;;;;27.20;5.50;;;;;;;;;;5025788;28;20104;-35
2021/08/06 00:26:43;;;;;;;26.70;5.70;;;;;;;;;;5029540;28;20028;-37
2021/08/06 00:29:10;;;;;;;23.45;5.50;;;;;;;;;;5031156;28;20025;-34
2021/08/06 00:31:37;;;;;;;30.15;5.95;;;;;;;;;;5031053;28;20120;-37
2021/08/06 00:34:05;;;;;;;22.48;5.93;;;;;;;;;;5032760;28;20033;-34
2021/08/06 00:36:32;;;;;;;24.92;5.40;;;;;;;;;;5030563;28;20424;-34
2021/08/06 00:39:00;;;;;;;17.90;5.25;;;;;;;;;;5029961;28;20029;-35
2021/08/06 00:41:27;;;;;;;23.45;5.38;;;;;;;;;;5032339;28;20021;-35
2021/08/06 00:43:54;;;;;;;27.25;6.63;;;;;;;;;;5031328;28;20172;-35
2021/08/06 00:46:21;;;;;;;20.00;4.90;;;;;;;;;;5025182;28;20364;-43
2021/08/06 00:48:48;;;;;;;22.83;5.63;;;;;;;;;;5028082;28;20025;-34
2021/08/06 00:51:15;;;;;;;15.75;4.75;;;;;;;;;;5029563;28;20075;-38
2021/08/06 00:53:42;;;;;;;23.33;5.40;;;;;;;;;;5030202;28;20049;-34
2021/08/06 00:56:10;;;;;;;27.65;5.35;;;;;;;;;;5030994;28;20433;-36
2021/08/06 00:58:38;;;;;;;25.52;5.38;;;;;;;;;;5030595;28;20029;-34
2021/08/06 01:01:05;;;;;;;26.58;5.63;;;;;;;;;;5025122;28;20018;-49
2021/08/06 01:03:50;;;;;;;23.98;5.25;;;;;;;;;;5027907;28;20040;-36
2021/08/06 01:06:27;;;;;;;23.73;5.95;;;;;;;;;;5031622;28;20485;-37
2021/08/06 01:08:54;;;;;;;22.83;5.95;;;;;;;;;;5029544;28;20037;-37
2021/08/06 01:11:23;;;;;;;29.10;6.95;;;;;;;;;;5029791;28;20032;-35
2021/08/06 01:13:53;;;;;;;20.27;6.53;;;;;;;;;;5026015;28;20025;-35
2021/08/06 01:16:20;;;;;;;31.13;7.07;;;;;;;;;;5030677;28;20159;-35
2021/08/06 01:18:51;;;;;;;35.95;7.78;;;;;;;;;;5031157;28;20026;-37
2021/08/06 01:21:18;;;;;;;38.45;9.00;;;;;;;;;;5024815;28;20021;-35
2021/08/06 01:23:46;;;;;;;36.22;8.43;;;;;;;;;;5010737;28;20017;-36
2021/08/06 01:26:15;;;;;;;41.10;9.30;;;;;;;;;;5028653;28;20025;-36
2021/08/06 01:28:46;;;;;;;37.80;9.47;;;;;;;;;;5027474;28;20069;-37
2021/08/06 01:31:14;;;;;;;36.83;10.00;;;;;;;;;;5030263;28;20104;-36
2021/08/06 01:33:41;;;;;;;32.10;9.30;;;;;;;;;;5031198;28;20036;-37
2021/08/06 01:36:08;;;;;;;45.08;10.38;;;;;;;;;;5025141;28;20037;-37
2021/08/06 01:38:35;;;;;;;42.60;10.25;;;;;;;;;;5029111;28;20026;-35
2021/08/06 01:41:25;;;;;;;45.22;10.32;;;;;;;;;;5031086;28;20025;-37
2021/08/06 01:44:11;;;;;;;37.20;9.73;;;;;;;;;;5022567;28;20069;-36
2021/08/06 01:47:07;;;;;;;38.28;9.80;;;;;;;;;;5026354;28;20024;-34
2021/08/06 01:49:45;;;;;;;43.30;9.70;;;;;;;;;;5011257;28;20038;-37
2021/08/06 01:52:14;;;;;;;40.85;10.10;;;;;;;;;;5027754;28;20033;-36
2021/08/06 01:54:42;;;;;;;36.83;10.50;;;;;;;;;;5030380;28;20013;-36
2021/08/06 01:57:10;;;;;;;36.78;8.88;;;;;;;;;;5028846;28;20618;-34
2021/08/06 01:59:38;;;;;;;38.22;9.45;;;;;;;;;;5031114;28;20025;-42
2021/08/06 02:02:05;;;;;;;34.42;10.10;;;;;;;;;;5027745;28;20037;-36
2021/08/06 02:04:32;;;;;;;32.30;9.23;;;;;;;;;;5028907;28;20014;-34
2021/08/06 02:06:59;;;;;;;38.10;10.52;;;;;;;;;;5026344;28;20381;-38
2021/08/06 02:09:27;;;;;;;38.97;10.27;;;;;;;;;;5031688;28;20028;-34
2021/08/06 02:11:54;;;;;;;32.88;9.07;;;;;;;;;;5028941;28;20028;-35
2021/08/06 02:14:22;;;;;;;31.85;9.50;;;;;;;;;;5030767;28;20029;-34
2021/08/06 02:16:50;;;;;;;29.40;9.13;;;;;;;;;;5029815;28;20072;-41
2021/08/06 02:19:19;;;;;;;28.75;8.43;;;;;;;;;;5030961;28;20033;-41
2021/08/06 02:21:47;;;;;;;37.05;8.70;;;;;;;;;;5030751;28;20772;-34
2021/08/06 02:24:14;;;;;;;27.52;7.97;;;;;;;;;;5028871;28;20025;-34
2021/08/06 02:26:43;;;;;;;31.52;8.23;;;;;;;;;;5023141;28;20024;-33
2021/08/06 02:29:14;;;;;;;25.13;8.10;;;;;;;;;;5030032;28;20029;-33
2021/08/06 02:31:41;;;;;;;30.23;7.75;;;;;;;;;;5029868;28;20037;-34
2021/08/06 02:34:09;;;;;;;29.77;8.30;;;;;;;;;;5027797;28;20018;-33
2021/08/06 02:36:36;;;;;;;28.48;8.32;;;;;;;;;;5023108;28;20022;-34
2021/08/06 02:39:07;;;;;;;32.35;7.60;;;;;;;;;;5024702;28;20057;-34
2021/08/06 02:41:34;;;;;;;29.90;8.38;;;;;;;;;;5027584;28;20325;-33
2021/08/06 02:44:01;;;;;;;32.47;7.80;;;;;;;;;;5024107;28;20052;-38
2021/08/06 02:46:28;;;;;;;24.48;7.88;;;;;;;;;;5028331;28;20026;-35
2021/08/06 02:48:55;;;;;;;25.27;6.93;;;;;;;;;;5029888;28;20025;-35
2021/08/06 02:51:22;;;;;;;23.88;7.80;;;;;;;;;;5029279;28;20495;-34
2021/08/06 02:53:49;;;;;;;21.52;7.15;;;;;;;;;;5030583;28;20105;-35
2021/08/06 02:56:16;;;;;;;22.50;6.85;;;;;;;;;;5026797;28;20018;-33
2021/08/06 02:58:43;;;;;;;24.17;6.80;;;;;;;;;;5006282;28;20041;-35
2021/08/06 03:01:10;;;;;;;25.52;7.47;;;;;;;;;;5029726;28;20032;-39
2021/08/06 03:03:37;;;;;;;20.42;6.82;;;;;;;;;;5031068;28;20017;-34
2021/08/06 03:06:04;;;;;;;26.05;6.78;;;;;;;;;;5031086;28;20688;-35
2021/08/06 03:08:31;;;;;;;26.15;7.22;;;;;;;;;;5031569;28;20017;-38
2021/08/06 03:10:58;;;;;;;24.70;6.50;;;;;;;;;;5031007;28;20438;-34
2021/08/06 03:13:25;;;;;;;24.02;6.53;;;;;;;;;;5031008;28;20024;-34
2021/08/06 03:15:52;;;;;;;23.10;6.45;;;;;;;;;;5030892;28;20083;-36
2021/08/06 03:18:19;;;;;;;21.35;6.20;;;;;;;;;;5030247;28;20033;-34
2021/08/06 03:20:46;;;;;;;17.52;6.43;;;;;;;;;;5030332;28;20021;-37
2021/08/06 03:23:13;;;;;;;20.98;5.97;;;;;;;;;;5024484;28;20385;-34
2021/08/06 03:25:40;;;;;;;16.95;5.93;;;;;;;;;;5012668;28;20495;-37
2021/08/06 03:28:07;;;;;;;12.75;5.50;;;;;;;;;;5029969;28;20037;-41
2021/08/06 03:30:34;;;;;;;16.13;6.32;;;;;;;;;;5031167;28;20532;-34
2021/08/06 03:33:01;;;;;;;18.10;6.60;;;;;;;;;;5032027;28;20064;-35
2021/08/06 03:35:28;;;;;;;18.95;6.10;;;;;;;;;;5031759;28;20028;-34
2021/08/06 03:37:55;;;;;;;16.33;5.53;;;;;;;;;;5031315;28;20388;-36
2021/08/06 03:40:22;;;;;;;21.13;5.43;;;;;;;;;;5211543;22;20535;-34
2021/08/06 03:42:49;;;;;;;20.17;5.97;;;;;;;;;;5010331;28;20021;-34
2021/08/06 03:45:16;;;;;;;17.40;6.03;;;;;;;;;;5011837;28;20113;-34
2021/08/06 03:47:43;;;;;;;13.93;5.25;;;;;;;;;;5012223;28;20180;-34
2021/08/06 03:50:11;;;;;;;13.63;5.00;;;;;;;;;;5011972;28;20026;-35
2021/08/06 03:52:38;;;;;;;14.73;5.40;;;;;;;;;;5012116;28;20025;-35
2021/08/06 03:55:05;;;;;;;17.10;5.70;;;;;;;;;;5011987;28;20076;-34
2021/08/06 03:57:32;;;;;;;17.80;5.43;;;;;;;;;;5011822;28;20030;-34
2021/08/06 03:59:59;;;;;;;12.38;4.90;;;;;;;;;;5012111;28;20101;-34
2021/08/06 04:02:26;;;;;;;11.13;5.15;;;;;;;;;;5012018;28;20029;-36
2021/08/06 04:04:53;;;;;;;17.50;5.68;;;;;;;;;;5011606;28;20018;-34
2021/08/06 04:07:20;;;;;;;16.63;5.45;;;;;;;;;;4994417;28;20033;-35
2021/08/06 04:09:47;;;;;;;14.70;5.07;;;;;;;;;;5011217;28;20690;-34
2021/08/06 04:12:14;;;;;;;16.23;5.07;;;;;;;;;;5011629;28;20393;-36
2021/08/06 04:14:42;;;;;;;16.27;5.40;;;;;;;;;;5004417;28;20050;-34
2021/08/06 04:17:09;;;;;;;13.10;5.28;;;;;;;;;;5011172;28;20416;-34
2021/08/06 04:19:36;;;;;;;13.13;5.25;;;;;;;;;;5011997;28;20030;-33
2021/08/06 04:22:03;;;;;;;15.05;5.57;;;;;;;;;;5011226;28;20421;-42
2021/08/06 04:24:30;;;;;;;12.40;5.38;;;;;;;;;;5011451;28;20092;-33
2021/08/06 04:26:57;;;;;;;8.98;4.60;;;;;;;;;;5011515;28;20083;-34
2021/08/06 04:29:24;;;;;;;9.50;4.72;;;;;;;;;;5011407;28;20026;-34
2021/08/06 04:31:51;;;;;;;14.43;4.93;;;;;;;;;;5011103;28;20402;-34
2021/08/06 04:34:18;;;;;;;14.32;5.30;;;;;;;;;;5010933;28;20037;-33
2021/08/06 04:36:45;;;;;;;8.60;4.88;;;;;;;;;;5011365;28;20083;-34
2021/08/06 04:39:12;;;;;;;11.15;5.10;;;;;;;;;;5011210;28;20477;-34
2021/08/06 04:41:39;;;;;;;11.75;4.85;;;;;;;;;;5011090;28;20559;-36
2021/08/06 04:44:06;;;;;;;12.05;4.80;;;;;;;;;;5010739;28;20034;-33
2021/08/06 04:46:33;;;;;;;11.57;5.05;;;;;;;;;;5011686;28;20084;-35
2021/08/06 04:49:01;;;;;;;14.00;5.00;;;;;;;;;;5011009;28;20374;-33
2021/08/06 04:51:28;;;;;;;12.93;4.80;;;;;;;;;;5010891;28;20099;-33
2021/08/06 04:53:55;;;;;;;8.57;4.20;;;;;;;;;;5010776;28;20026;-34
2021/08/06 04:56:22;;;;;;;10.10;5.18;;;;;;;;;;5010476;28;20360;-34
2021/08/06 04:58:49;;;;;;;11.85;4.65;;;;;;;;;;5011009;28;20444;-33
2021/08/06 05:01:16;;;;;;;8.35;4.72;;;;;;;;;;5010568;28;20381;-33
2021/08/06 05:03:43;;;;;;;11.85;4.82;;;;;;;;;;5010965;28;20121;-34
2021/08/06 05:06:10;;;;;;;10.73;4.30;;;;;;;;;;5010106;28;20447;-33
2021/08/06 05:08:48;;;;;;;10.55;4.47;;;;;;;;;;5011257;28;20026;-33
2021/08/06 05:11:15;;;;;;;10.20;4.50;;;;;;;;;;5011246;28;20017;-34
2021/08/06 05:13:42;;;;;;;8.85;4.55;;;;;;;;;;5014374;28;20037;-34
2021/08/06 05:16:10;;;;;;;8.00;4.32;;;;;;;;;;5013758;28;20014;-35
2021/08/06 05:18:38;;;;;;;9.60;4.43;;;;;;;;;;5014565;28;20030;-33
2021/08/06 05:21:05;;;;;;;8.82;4.18;;;;;;;;;;5014189;28;20485;-35
2021/08/06 05:23:32;;;;;;;9.10;4.70;;;;;;;;;;5013882;28;20662;-35
2021/08/06 05:25:59;;;;;;;7.63;4.10;;;;;;;;;;5014512;28;20493;-34
2021/08/06 05:28:27;;;;;;;6.22;4.57;;;;;;;;;;5013495;28;20512;-34
2021/08/06 05:30:54;;;;;;;7.97;4.28;;;;;;;;;;5014305;28;20018;-33
2021/08/06 05:33:21;;;;;;;7.97;4.30;;;;;;;;;;5013349;28;20029;-34
2021/08/06 05:35:48;;;;;;;8.75;4.05;;;;;;;;;;4995995;28;20029;-34
2021/08/06 05:38:15;;;;;;;8.55;4.30;;;;;;;;;;5013170;28;20100;-35
2021/08/06 05:40:42;;;;;;;10.75;4.30;;;;;;;;;;5013903;28;20505;-34
2021/08/06 05:43:09;;;;;;;5.75;4.07;;;;;;;;;;4996414;28;20030;-33
2021/08/06 05:45:36;;;;;;;9.73;4.60;;;;;;;;;;5013506;28;20043;-34
2021/08/06 05:48:03;;;;;;;7.53;4.07;;;;;;;;;;5013931;28;20033;-34
2021/08/06 05:50:37;;;;;;;7.60;4.22;;;;;;;;;;5012505;28;20053;-33
2021/08/06 05:53:04;;;;;;;10.23;4.30;;;;;;;;;;5013937;28;20045;-34
2021/08/06 05:55:31;;;;;;;6.05;4.10;;;;;;;;;;5013091;28;20014;-36
2021/08/06 05:57:59;;;;;;;6.93;4.20;;;;;;;;;;5013783;28;20038;-34
2021/08/06 06:00:26;;;;;;;8.82;4.28;;;;;;;;;;5013215;28;20030;-34
2021/08/06 06:02:53;;;;;;;8.43;4.43;;;;;;;;;;5013750;28;20473;-33
2021/08/06 06:05:20;;;;;;;7.07;4.13;;;;;;;;;;5013134;28;20026;-34
2021/08/06 06:07:48;;;;;;;8.23;4.13;;;;;;;;;;4995981;28;20034;-34
2021/08/06 06:10:21;;;;;;;7.60;4.13;;;;;;;;;;5013103;28;20424;-33
2021/08/06 06:12:49;;;;;;;6.90;3.83;;;;;;;;;;5013566;28;20025;-33
2021/08/06 06:15:16;;;;;;;8.02;3.80;;;;;;;;;;5013381;28;20100;-33
2021/08/06 06:17:43;;;;;;;6.32;3.58;;;;;;;;;;5012417;28;20104;-33
2021/08/06 06:20:10;;;;;;;8.18;3.92;;;;;;;;;;5013370;28;20105;-33
2021/08/06 06:22:37;;;;;;;7.63;3.90;;;;;;;;;;5011896;28;20076;-34
2021/08/06 06:25:05;;;;;;;8.68;4.22;;;;;;;;;;5012861;28;20453;-34
2021/08/06 06:27:32;;;;;;;8.68;4.05;;;;;;;;;;5013024;28;20018;-33
2021/08/06 06:29:59;;;;;;;7.35;4.32;;;;;;;;;;5012942;28;20022;-34
2021/08/06 06:32:26;;;;;;;5.68;3.97;;;;;;;;;;5012607;28;20034;-33
2021/08/06 06:34:53;;;;;;;8.15;4.03;;;;;;;;;;5012805;28;20025;-34
2021/08/06 06:37:20;;;;;;;8.35;4.32;;;;;;;;;;5012817;28;20037;-34
2021/08/06 06:39:47;;;;;;;6.55;4.07;;;;;;;;;;5012169;28;20029;-33
2021/08/06 06:42:14;;;;;;;6.68;3.95;;;;;;;;;;5013065;28;20014;-34
2021/08/06 06:44:41;;;;;;;5.30;3.60;;;;;;;;;;4994862;28;20018;-35
2021/08/06 06:47:08;;;;;;;10.48;4.07;;;;;;;;;;5012242;28;20033;-35
2021/08/06 06:49:35;;;;;;;7.90;4.10;;;;;;;;;;5012202;28;20145;-36
2021/08/06 06:52:02;;;;;;;6.97;4.03;;;;;;;;;;5012674;28;20022;-35
2021/08/06 06:54:29;;;;;;;5.97;3.85;;;;;;;;;;5012078;28;20064;-35
2021/08/06 06:56:56;;;;;;;7.03;3.80;;;;;;;;;;5012373;28;20029;-33
2021/08/06 06:59:23;;;;;;;6.38;3.78;;;;;;;;;;5011776;28;20132;-34
2021/08/06 07:01:50;;;;;;;7.10;3.67;;;;;;;;;;5012034;28;20018;-33
2021/08/06 07:04:17;;;;;;;6.43;3.65;;;;;;;;;;5011780;28;20399;-33
2021/08/06 07:06:44;;;;;;;7.05;3.70;;;;;;;;;;5012128;28;20025;-35
2021/08/06 07:09:11;;;;;;;6.85;3.83;;;;;;;;;;5010768;28;20018;-37
2021/08/06 07:11:38;;;;;;;8.63;4.13;;;;;;;;;;5011406;28;20666;-34
2021/08/06 07:14:06;;;;;;;10.48;4.25;;;;;;;;;;5011736;28;20097;-33
2021/08/06 07:16:33;;;;;;;7.00;3.50;;;;;;;;;;5011329;28;20029;-34
2021/08/06 07:19:00;;;;;;;6.28;3.63;;;;;;;;;;5012108;28;20064;-34
2021/08/06 07:21:27;;;;;;;5.30;3.67;;;;;;;;;;5011544;28;20033;-34
2021/08/06 07:23:54;;;;;;;6.18;3.83;;;;;;;;;;5012055;28;20056;-34
2021/08/06 07:26:21;;;;;;;9.98;3.80;;;;;;;;;;5011064;28;20151;-33
2021/08/06 07:28:48;;;;;;;6.90;3.90;;;;;;;;;;5012057;28;20477;-33
2021/08/06 07:31:15;;;;;;;8.77;3.58;;;;;;;;;;5010988;28;20056;-34
2021/08/06 07:33:42;;;;;;;5.90;3.55;;;;;;;;;;5011563;28;20018;-37
2021/08/06 07:36:09;;;;;;;7.57;3.58;;;;;;;;;;5011665;28;20021;-36
2021/08/06 07:38:36;;;;;;;6.82;3.95;;;;;;;;;;5011106;28;20038;-34
2021/08/06 07:41:04;;;;;;;6.75;3.55;;;;;;;;;;5011440;28;20092;-33
2021/08/06 07:43:31;;;;;;;7.15;3.67;;;;;;;;;;5011221;28;20030;-34
2021/08/06 07:45:58;;;;;;;7.13;3.60;;;;;;;;;;5011539;28;20026;-34
2021/08/06 07:48:25;;;;;;;5.88;3.75;;;;;;;;;;5011014;28;20028;-35
2021/08/06 07:50:52;;;;;;;6.22;3.80;;;;;;;;;;5011847;28;20018;-34
2021/08/06 07:53:19;;;;;;;6.00;3.15;;;;;;;;;;5010825;28;20456;-34
2021/08/06 07:55:46;;;;;;;6.38;3.67;;;;;;;;;;5011207;28;20064;-34
2021/08/06 07:58:13;;;;;;;6.93;3.75;;;;;;;;;;5011249;28;20462;-36
2021/08/06 08:00:40;;;;;;;7.85;3.90;;;;;;;;;;4993015;28;20022;-35
2021/08/06 08:03:07;;;;;;;5.90;3.80;;;;;;;;;;5011119;28;20677;-34
2021/08/06 08:05:34;;;;;;;4.35;3.30;;;;;;;;;;5011045;28;20018;-34
2021/08/06 08:08:01;;;;;;;6.57;3.50;;;;;;;;;;5011759;28;20601;-34
2021/08/06 08:10:28;;;;;;;7.95;4.00;;;;;;;;;;5010983;28;20386;-35
2021/08/06 08:12:55;;;;;;;7.40;3.75;;;;;;;;;;5011792;28;20026;-33
2021/08/06 08:15:22;;;;;;;5.28;3.50;;;;;;;;;;5010963;28;20096;-35
2021/08/06 08:17:50;;;;;;;7.00;3.50;;;;;;;;;;5010901;28;20489;-34
2021/08/06 08:20:17;;;;;;;8.20;3.45;;;;;;;;;;5011382;28;20390;-38
2021/08/06 08:22:44;;;;;;;5.85;3.47;;;;;;;;;;5010979;28;20418;-34
2021/08/06 08:25:12;;;;;;;5.68;3.50;;;;;;;;;;4993984;28;20029;-33
2021/08/06 08:27:39;;;;;;;5.50;3.40;;;;;;;;;;5010981;28;20033;-34
2021/08/06 08:30:07;;;;;;;6.22;3.80;;;;;;;;;;5010686;28;20401;-34
2021/08/06 08:32:37;;;;;;;6.20;3.35;;;;;;;;;;5011508;28;20108;-37
2021/08/06 08:35:05;;;;;;;5.35;3.33;;;;;;;;;;4998015;28;20018;-33
2021/08/06 08:37:32;;;;;;;5.82;3.58;;;;;;;;;;5010693;28;20374;-34
2021/08/06 08:39:59;;;;;;;6.60;3.85;;;;;;;;;;5010441;28;20042;-34
2021/08/06 08:42:26;;;;;;;6.15;3.60;;;;;;;;;;4994046;28;20034;-33
2021/08/06 08:44:55;;;;;;;4.95;3.47;;;;;;;;;;5010966;28;20116;-34
2021/08/06 08:47:23;;;;;;;6.00;3.75;;;;;;;;;;5013413;28;20104;-39
2021/08/06 08:49:53;;;;;;;5.70;3.25;;;;;;;;;;5014423;28;20535;-35
2021/08/06 08:52:21;;;;;;;7.88;3.78;;;;;;;;;;5015086;28;20028;-34
2021/08/06 08:54:48;;;;;;;5.32;3.65;;;;;;;;;;5014038;28;20393;-35
2021/08/06 08:57:22;;;;;;;7.55;3.53;;;;;;;;;;5014500;28;20061;-33
2021/08/06 08:59:50;;;;;;;6.32;3.90;;;;;;;;;;4996832;28;20377;-35
2021/08/06 09:02:17;;;;;;;6.07;3.97;;;;;;;;;;5000756;28;20350;-36
2021/08/06 09:04:46;;;;;;;5.53;3.67;;;;;;;;;;5014255;28;20423;-34
2021/08/06 09:07:39;;;;;;;9.52;3.83;;;;;;;;;;5014447;28;20049;-34
2021/08/06 09:10:14;;;;;;;6.90;3.90;;;;;;;;;;5010694;28;20037;-33
2021/08/06 09:12:59;;;;;;;4.43;3.38;;;;;;;;;;5014889;28;20398;-34
2021/08/06 09:15:45;;;;;;;7.40;3.53;;;;;;;;;;5013984;28;20461;-36
2021/08/06 09:18:30;;;;;;;6.63;3.60;;;;;;;;;;5014248;28;20550;-36
2021/08/06 09:20:58;;;;;;;6.43;3.78;;;;;;;;;;5013957;28;20057;-36
2021/08/06 09:23:39;;;;;;;6.70;3.63;;;;;;;;;;5014697;28;20373;-36
2021/08/06 09:26:07;;;;;;;5.57;3.50;;;;;;;;;;5013767;28;20423;-36
2021/08/06 09:28:34;;;;;;;7.43;4.13;;;;;;;;;;5014160;28;20057;-36
2021/08/06 09:31:17;;;;;;;7.32;3.60;;;;;;;;;;5013509;28;20501;-36
2021/08/06 09:33:44;;;;;;;5.85;4.10;;;;;;;;;;5014389;28;20079;-35
2021/08/06 09:36:18;;;;;;;9.75;4.35;;;;;;;;;;5013194;28;20053;-35
2021/08/06 09:38:45;;;;;;;7.65;3.83;;;;;;;;;;5013809;28;20489;-35
2021/08/06 09:41:31;;;;;;;7.40;3.80;;;;;;;;;;5013124;28;20510;-35
2021/08/06 09:44:15;;;;;;;5.13;3.50;;;;;;;;;;5013771;28;20469;-35
2021/08/06 09:46:42;;;;;;;6.80;4.20;;;;;;;;;;5013133;28;20030;-35
2021/08/06 09:49:09;;;;;;;8.50;4.00;;;;;;;;;;5013779;28;20348;-39
2021/08/06 09:51:41;;;;;;;6.63;4.25;;;;;;;;;;5013275;28;20484;-34
2021/08/06 09:54:21;;;;;;;6.30;4.10;;;;;;;;;;5013544;28;20118;-34
2021/08/06 09:56:48;;;;;;;5.63;3.65;;;;;;;;;;5012844;28;20437;-35
2021/08/06 09:59:33;;;;;;;5.72;3.70;;;;;;;;;;5013713;28;20385;-40
2021/08/06 10:02:12;;;;;;;5.05;3.65;;;;;;;;;;5011688;28;20084;-34
2021/08/06 10:04:40;;;;;;;7.90;3.85;;;;;;;;;;5012547;28;20033;-34
2021/08/06 10:07:08;;;;;;;8.65;3.85;;;;;;;;;;5011902;28;20109;-35
2021/08/06 10:09:35;;;;;;;6.03;3.97;;;;;;;;;;5011897;28;20022;-35
2021/08/06 10:12:02;;;;;;;6.05;3.97;;;;;;;;;;5012990;28;20026;-35
2021/08/06 10:14:30;;;;;;;5.07;3.60;;;;;;;;;;5012223;28;20037;-38
2021/08/06 10:17:00;;;;;;;7.25;3.80;;;;;;;;;;5013229;28;20018;-35
2021/08/06 10:19:28;;;;;;;6.03;3.50;;;;;;;;;;5012564;28;20132;-36
2021/08/06 10:21:56;;;;;;;6.38;4.20;;;;;;;;;;5013281;28;20028;-35
2021/08/06 10:24:23;;;;;;;6.53;4.20;;;;;;;;;;5012607;28;20428;-35
2021/08/06 10:26:51;;;;;;;7.40;4.22;;;;;;;;;;5013145;28;20083;-38
2021/08/06 10:32:11;;;;;;;5.63;3.92;;;;;;;;;;5031375;28;20048;-37
2021/08/06 10:34:56;;;;;;;4.82;3.67;;;;;;;;;;5046869;28;20104;-33
2021/08/06 10:37:41;;;;;;;6.82;4.07;;;;;;;;;;5047884;28;20504;-33
2021/08/06 10:40:08;;;;;;;9.32;4.28;;;;;;;;;;5048570;28;20492;-34
2021/08/06 10:42:35;;;;;;;6.97;4.15;;;;;;;;;;5049764;28;20165;-34
2021/08/06 10:45:03;;;;;;;9.25;4.35;;;;;;;;;;5046826;28;20416;-35
2021/08/06 10:47:48;;;;;;;7.03;4.25;;;;;;;;;;5050730;28;20618;-34
2021/08/06 10:50:16;;;;;;;10.15;4.90;;;;;;;;;;5038992;28;20091;-33
2021/08/06 10:52:43;;;;;;;10.50;5.00;;;;;;;;;;5030356;28;20032;-34
2021/08/06 10:55:20;;;;;;;11.35;5.03;;;;;;;;;;5042632;28;20454;-36
2021/08/06 10:57:47;;;;;;;14.82;5.40;;;;;;;;;;5043952;28;20518;-36
2021/08/06 11:00:33;;;;;;;9.13;4.80;;;;;;;;;;5048198;28;20432;-37
2021/08/06 11:03:00;;;;;;;8.35;4.80;;;;;;;;;;5044304;28;20427;-34
2021/08/06 11:05:31;;;;;;;9.25;5.13;;;;;;;;;;5046314;28;20516;-36
2021/08/06 11:08:00;;;;;;;19.60;5.28;;;;;;;;;;5047767;28;20617;-35
2021/08/06 11:10:48;;;;;;;10.48;5.07;;;;;;;;;;5043104;28;20025;-34
2021/08/06 11:13:33;;;;;;;24.13;5.43;;;;;;;;;;5048069;28;20068;-37
2021/08/06 11:16:08;;;;;;;16.73;5.15;;;;;;;;;;5047273;28;20040;-40
2021/08/06 11:18:35;;;;;;;15.75;5.28;;;;;;;;;;5049640;28;20037;-38
2021/08/06 11:21:02;;;;;;;137.23;19.17;;;;;;;;;;5048579;28;20029;-36
2021/08/06 11:23:30;;;;;;;317.73;29.60;;;;;;;;;;5048782;28;20029;-35
2021/08/06 11:26:05;;;;;;;205.23;23.88;;;;;;;;;;5047604;28;20021;-35
2021/08/06 11:28:33;;;;;;;103.10;13.88;;;;;;;;;;5049034;28;20032;-37
2021/08/06 11:31:00;;;;;;;61.03;10.18;;;;;;;;;;5032481;28;20124;-42
2021/08/06 11:33:27;;;;;;;55.08;10.95;;;;;;;;;;5030085;28;20029;-38
2021/08/06 11:35:54;;;;;;;38.67;9.00;;;;;;;;;;5029842;28;20373;-34
2021/08/06 11:38:23;;;;;;;29.95;10.63;;;;;;;;;;5029419;28;20064;-34
2021/08/06 11:40:57;;;;;;;42.53;12.32;;;;;;;;;;5024289;28;20477;-34
2021/08/06 11:43:25;;;;;;;29.73;11.82;;;;;;;;;;5030247;28;20079;-35
2021/08/06 11:45:55;;;;;;;31.73;12.38;;;;;;;;;;5029749;28;20026;-36
2021/08/06 11:48:22;;;;;;;21.42;11.90;;;;;;;;;;5029505;28;20091;-33
2021/08/06 11:50:49;;;;;;;36.70;12.27;;;;;;;;;;5021629;28;20025;-47
2021/08/06 11:53:19;;;;;;;30.20;12.50;;;;;;;;;;5029446;28;20001;-41
2021/08/06 11:55:48;;;;;;;39.97;12.52;;;;;;;;;;5030350;28;20077;-44
2021/08/06 11:58:16;;;;;;;44.65;13.68;;;;;;;;;;5028668;28;20043;-37
2021/08/06 12:00:43;;;;;;;41.15;13.48;;;;;;;;;;5029425;28;20025;-36
2021/08/06 12:03:10;;;;;;;40.50;14.02;;;;;;;;;;5029536;28;20034;-37
2021/08/06 12:05:39;;;;;;;44.35;13.85;;;;;;;;;;5029300;28;20060;-34
2021/08/06 12:08:19;;;;;;;40.53;14.00;;;;;;;;;;5030179;28;20079;-34
2021/08/06 12:10:47;;;;;;;34.85;12.57;;;;;;;;;;5010644;28;20025;-35
2021/08/06 12:13:16;;;;;;;29.00;12.68;;;;;;;;;;5030310;28;20029;-35
2021/08/06 12:15:43;;;;;;;39.78;13.95;;;;;;;;;;5028342;28;20035;-40
2021/08/06 12:18:15;;;;;;;34.33;12.52;;;;;;;;;;5029269;28;20033;-36
2021/08/06 12:20:43;;;;;;;27.75;13.38;;;;;;;;;;5027691;28;20057;-35
2021/08/06 12:23:11;;;;;;;24.88;13.35;;;;;;;;;;5034647;28;20447;-35
2021/08/06 12:25:38;;;;;;;24.38;13.38;;;;;;;;;;5032483;28;20045;-46
2021/08/06 12:28:06;;;;;;;32.28;14.32;;;;;;;;;;5034173;28;20068;-33
2021/08/06 12:30:34;;;;;;;26.80;13.05;;;;;;;;;;5032227;28;20045;-36
2021/08/06 12:33:01;;;;;;;27.15;13.40;;;;;;;;;;5033559;28;20519;-36
2021/08/06 12:35:28;;;;;;;22.05;13.70;;;;;;;;;;5032920;28;20029;-34
2021/08/06 12:37:55;;;;;;;23.75;14.25;;;;;;;;;;5034230;28;20033;-38
2021/08/06 12:40:23;;;;;;;23.95;13.05;;;;;;;;;;5033443;28;20053;-48
2021/08/06 12:42:50;;;;;;;34.10;13.90;;;;;;;;;;5032786;28;20072;-35
2021/08/06 12:45:21;;;;;;;28.85;12.50;;;;;;;;;;5015808;28;20068;-34
2021/08/06 12:47:57;;;;;;;28.85;12.30;;;;;;;;;;5032179;28;20037;-34
2021/08/06 12:50:27;;;;;;;20.20;11.80;;;;;;;;;;5033570;28;20096;-35
2021/08/06 12:53:00;;;;;;;23.85;12.05;;;;;;;;;;5026201;28;20029;-34
2021/08/06 12:55:28;;;;;;;27.17;12.18;;;;;;;;;;5032782;28;20091;-36
2021/08/06 12:57:56;;;;;;;26.25;12.23;;;;;;;;;;5032397;28;20037;-43
2021/08/06 13:00:26;;;;;;;30.27;12.70;;;;;;;;;;5032574;28;20107;-44
2021/08/06 13:03:21;;;;;;;36.35;12.13;;;;;;;;;;5032563;28;20029;-35
2021/08/06 13:05:48;;;;;;;43.38;13.57;;;;;;;;;;5005668;28;20029;-36
2021/08/06 13:08:17;;;;;;;29.35;11.65;;;;;;;;;;5032360;28;20036;-38
2021/08/06 13:10:45;;;;;;;33.20;11.80;;;;;;;;;;5032086;28;20021;-34
2021/08/06 13:13:12;;;;;;;32.63;11.30;;;;;;;;;;5032924;28;20045;-36
2021/08/06 13:15:39;;;;;;;32.90;11.85;;;;;;;;;;5032072;28;20024;-36
2021/08/06 13:18:07;;;;;;;28.23;10.68;;;;;;;;;;5031924;28;20045;-40
2021/08/06 13:20:37;;;;;;;31.88;11.57;;;;;;;;;;5032335;28;20615;-34
2021/08/06 13:23:05;;;;;;;37.17;11.27;;;;;;;;;;5032617;28;20108;-35
2021/08/06 13:25:33;;;;;;;37.10;11.95;;;;;;;;;;5029778;28;20397;-33
2021/08/06 13:28:00;;;;;;;24.58;10.07;;;;;;;;;;5031520;28;20025;-34
2021/08/06 13:30:27;;;;;;;29.60;10.52;;;;;;;;;;5032116;28;20041;-34
2021/08/06 13:32:54;;;;;;;28.80;10.63;;;;;;;;;;5009443;28;20024;-34
2021/08/06 13:35:21;;;;;;;27.67;11.32;;;;;;;;;;5032528;28;20028;-50
2021/08/06 13:37:48;;;;;;;32.88;11.20;;;;;;;;;;5031951;28;20037;-35
2021/08/06 13:40:17;;;;;;;25.73;10.85;;;;;;;;;;5032568;28;20361;-34
2021/08/06 13:42:44;;;;;;;30.73;10.68;;;;;;;;;;5032633;28;20109;-34
2021/08/06 13:45:11;;;;;;;36.30;11.50;;;;;;;;;;5031676;28;20029;-33
2021/08/06 13:47:39;;;;;;;31.55;11.52;;;;;;;;;;5031067;28;20413;-34
2021/08/06 13:50:06;;;;;;;31.35;12.57;;;;;;;;;;5031327;28;20029;-33
2021/08/06 13:52:34;;;;;;;43.53;12.70;;;;;;;;;;5031764;28;20510;-33
2021/08/06 13:55:02;;;;;;;30.30;12.25;;;;;;;;;;5030846;28;20464;-40
2021/08/06 13:57:29;;;;;;;52.08;12.95;;;;;;;;;;5030899;28;20396;-33
2021/08/06 13:59:56;;;;;;;46.80;13.55;;;;;;;;;;5031590;28;20033;-34
2021/08/06 14:02:23;;;;;;;32.33;11.85;;;;;;;;;;5030178;28;20424;-33
2021/08/06 14:04:50;;;;;;;24.10;11.73;;;;;;;;;;5018692;28;20112;-39
2021/08/06 14:07:17;;;;;;;41.60;13.30;;;;;;;;;;5030398;28;20480;-36
2021/08/06 14:09:45;;;;;;;33.17;12.35;;;;;;;;;;5031139;28;20031;-34
2021/08/06 14:12:12;;;;;;;46.05;12.45;;;;;;;;;;5028456;28;20033;-33
2021/08/06 14:14:40;;;;;;;30.63;12.10;;;;;;;;;;5030556;28;20072;-37
2021/08/06 14:17:07;;;;;;;38.65;11.55;;;;;;;;;;5021533;28;20461;-34
2021/08/06 14:19:34;;;;;;;47.22;13.75;;;;;;;;;;5029581;28;20045;-34
2021/08/06 14:22:01;;;;;;;44.00;11.65;;;;;;;;;;5029716;28;20053;-35
2021/08/06 14:24:28;;;;;;;61.25;12.38;;;;;;;;;;5029065;28;20537;-35
2021/08/06 14:26:55;;;;;;;48.08;12.18;;;;;;;;;;5029434;28;20028;-36
2021/08/06 14:29:23;;;;;;;49.55;12.02;;;;;;;;;;5027508;28;20021;-34
2021/08/06 14:31:50;;;;;;;55.70;12.57;;;;;;;;;;5026450;28;20054;-36
2021/08/06 14:34:17;;;;;;;45.63;12.00;;;;;;;;;;5020820;28;20021;-35
2021/08/06 14:36:44;;;;;;;40.88;11.60;;;;;;;;;;5022250;28;20033;-33
2021/08/06 14:39:11;;;;;;;46.38;11.85;;;;;;;;;;5018955;28;20126;-38
2021/08/06 14:41:40;;;;;;;33.95;11.13;;;;;;;;;;5017705;28;20049;-35
2021/08/06 14:44:10;;;;;;;47.05;12.07;;;;;;;;;;5014281;28;20044;-36